Nearby Conditions - Metar Reports

 

KBYL - Williamsburg, Kentucky, USA
Distance from station: SSE 3mi, 5km
Updated: Tue, 11-Dec-2018 10:35am EST
Clear
Clear
 Wind from calm
Wind: Calm
Temperature: 28°F , -2°C
Dew Point: 28°F , -2°C
Humidity: 100%
Barometer: 30.31 inHg , 1026.4 hPa
Clouds: Clear
Visibility: 5 miles , 8 km
2018/12/11 15:35 KBYL 111535Z AUTO 00000KT 5SM CLR M02/M02 A3031 RMK AO1
KLOZ - London, Kentucky, USA
Distance from station: NNE 19mi, 30km
Updated: Tue, 11-Dec-2018 9:53am EST
Clear
Clear
 Wind from SSW
Wind: SSW 6 mph , 9 km/h
Temperature: 27°F , -3°C
Wind Chill: 20°F , -7°C
Dew Point: 25°F , -4°C
Humidity: 93%
Barometer: 30.31 inHg , 1026.4 hPa
Clouds: Clear
Visibility: 10 miles , 16 km
2018/12/11 14:53 KLOZ 111453Z AUTO 20005KT 10SM CLR M03/M04 A3031 RMK AO2 SLP274 T10281044 51010
 
KSME - Somerset, Kentucky, USA
Distance from station: WNW 27mi, 43km
Updated: Tue, 11-Dec-2018 10:35am EST
Clear
Clear
 Wind from SW
Wind: SW 3 mph , 6 km/h
Temperature: 30°F , -1°C
Dew Point: 30°F , -1°C
Humidity: 100%
Barometer: 30.33 inHg , 1027.1 hPa
Clouds: Clear
Visibility: 10 miles , 16 km
2018/12/11 15:35 KSME 111535Z AUTO 23003KT 10SM CLR M01/M01 A3033 RMK AO2
K1A6 - Middlesboro-Bell, Kentucky, USA
Distance from station: ESE 31mi, 50km
Updated: Tue, 11-Dec-2018 10:35am EST
Mist, Overcast
Mist, Overcast
 Wind from calm
Wind: Calm
Temperature: 25°F , -4°C
Dew Point: 25°F , -4°C
Humidity: 100%
Barometer: 30.34 inHg , 1027.4 hPa
Summary: Mist
Clouds: Overcast
Visibility: 4 miles , 6 km
Cloud details: Overcast 200 ft
2018/12/11 15:35 K1A6 111535Z AUTO 00000KT 4SM BR OVC002 M04/M04 A3034 RMK AO2 T10421042
 
KEKQ - Monticello/Wayne, Kentucky, USA
Distance from station: W 35mi, 57km
Updated: Tue, 11-Dec-2018 9:56am EST
Clear
Clear
 Wind from N
Wind: N 8 mph , 13 km/h
Temperature: 34°F , 1°C
Wind Chill: 27°F , -3°C
Dew Point: 28°F , -2°C
Humidity: 81%
Barometer: 30.35 inHg , 1027.8 hPa
Clouds: Clear
Visibility: 10 miles , 16 km
2018/12/11 14:56 KEKQ 111456Z AUTO 35007KT 260V040 10SM CLR 01/M02 A3035 RMK AO2 SLP303 6//// T00061022 51009 PNO $
KJAU - Jacksboro, Tennessee, USA
Distance from station: S 35mi, 57km
Updated: Tue, 11-Dec-2018 10:35am EST
Clear
Clear
 Wind from calm
Wind: Calm
Temperature: 34°F , 1°C
Dew Point: 27°F , -3°C
Humidity: 75%
Barometer: 30.35 inHg , 1027.8 hPa
Clouds: Clear
Visibility: 10 miles , 16 km
2018/12/11 15:35 KJAU 111535Z AUTO 00000KT 10SM CLR 01/M03 A3035 RMK A01
 
KI35 - Harlan, Kentucky, USA
Distance from station: E 47mi, 75km
Updated: Tue, 11-Dec-2018 10:35am EST
Overcast
Overcast
 Wind from calm
Wind: Calm
Temperature: 25°F , -4°C
Dew Point: 25°F , -4°C
Humidity: 100%
Barometer: 30.30 inHg , 1026.1 hPa
Clouds: Overcast
Visibility: 5 miles , 8 km
Cloud details: Overcast 400 ft
2018/12/11 15:35 KI35 111535Z AUTO 00000KT 5SM OVC004 M04/M04 A3030 RMK AO2 T10421045
K0VG - Jonesville, Virginia, USA
Distance from station: ESE 57mi, 91km
Updated: Mon, 23-Jul-2018 7:15pm EDT
NOT Current
Light thunderstorm, Rain, Overcast
Light thunderstorm, Rain, Overcast
 Wind from SSW
Wind: SSW 17 mph , 28 km/h
Temperature: 75°F , 24°C
Dew Point: 68°F , 20°C
Humidity: 78%
Barometer: 29.91 inHg , 1012.9 hPa
Summary: Light thunderstorm, Rain
Clouds: Overcast
Visibility: 7 miles , 11 km
Cloud details: Partly Cloudy 2900 ft
Mostly Cloudy 3800 ft
Overcast 4900 ft
2018/07/23 23:15 K0VG 232315Z AUTO 21015KT 7SM -TSRA SCT029 BKN038 OVC049 24/20 A2991 RMK AO2 LTG DSNT SW AND NW
 
KOQT - Oak Ridge, Tennessee, USA
Distance from station: S 57mi, 92km
Updated: Tue, 11-Dec-2018 9:53am EST
Clear
Clear
 Wind from calm
Wind: Calm
Temperature: 32°F , 0°C
Dew Point: 28°F , -2°C
Humidity: 87%
Barometer: 30.35 inHg , 1027.8 hPa
Clouds: Clear
Visibility: 10 miles , 16 km
2018/12/11 14:53 KOQT 111453Z AUTO 00000KT 10SM CLR 00/M02 A3035 RMK AO2 SLP294 I3001 T00001022 51012
KDVK - Danville, Kentucky, USA
Distance from station: NNW 60mi, 96km
Updated: Tue, 11-Dec-2018 10:35am EST
Clear
Clear
 Wind from calm
Wind: Calm
Temperature: 32°F , 0°C
Dew Point: 23°F , -5°C
Humidity: 69%
Barometer: 30.30 inHg , 1026.1 hPa
Clouds: Clear
Visibility: 10 miles , 16 km
2018/12/11 15:35 KDVK 111535Z AUTO 00000KT 10SM CLR 00/M05 A3030 RMK AO2

Metar display script from Saratoga-Weather.org